Terminal Aerodrome Forecast
Issued by NWS

Home | Current Version | Previous Version | Text Only | Print | Product List | Glossary On
Versions: 1 2 3 4 5 6 7 8 9 10 11 12 13 14 15 16 17 18 19 20 21
000
FTUS46 KMTR 192300
TAFSTS
TAF
KSTS 192337Z 2000/2024 00000KT P6SM SCT008 BKN060 OVC100
     FM200200 00000KT P6SM BKN009 OVC015
     FM200500 00000KT 2SM BR OVC007
     FM200600 30002KT 1/2SM FG OVC003
     FM201800 VRB03KT 6SM BR FEW006 SCT030 BKN050=

USA.gov is the U.S. government's official web portal to all federal, state and local government web resources and services.